Time;durP1;ratioP1;P1;durP2;ratioP2;P2;SDS_P1;SDS_P2;PMS_P1;PMS_P2;Temp;Humidity;BMP_temperature;BMP_pressure;BME280_temperature;BME280_humidity;BME280_pressure;Samples;Min_cycle;Max_cycle;Signal;HPM_P1;HPM_P2
2023/01/23 00:02:13;;;;;;;;;45.00;38.00;;;;;;;;4919014;28;45833;-76
2023/01/23 00:04:38;;;;;;;;;41.00;37.50;;;;;;;;4918842;28;45323;-76
2023/01/23 00:07:03;;;;;;;;;42.00;37.75;;;;;;;;4917222;28;45314;-76
2023/01/23 00:09:29;;;;;;;;;41.00;35.75;;;;;;;;4898711;28;47639;-76
2023/01/23 00:11:54;;;;;;;;;47.75;39.75;;;;;;;;4902986;28;45447;-76
2023/01/23 00:14:19;;;;;;;;;46.25;37.50;;;;;;;;4916788;28;45468;-76
2023/01/23 00:16:44;;;;;;;;;54.25;40.50;;;;;;;;4917595;28;45457;-76
2023/01/23 00:19:10;;;;;;;;;47.00;40.25;;;;;;;;4919375;28;45333;-76
2023/01/23 00:21:35;;;;;;;;;28.25;24.25;;;;;;;;4919163;28;45326;-76
2023/01/23 00:24:01;;;;;;;;;48.25;37.75;;;;;;;;4919667;28;45346;-76
2023/01/23 00:26:27;;;;;;;;;42.25;35.25;;;;;;;;4918721;28;45321;-74
2023/01/23 00:28:53;;;;;;;;;59.00;40.25;;;;;;;;4918304;28;45428;-74
2023/01/23 00:31:19;;;;;;;;;34.75;33.00;;;;;;;;4918415;28;45397;-74
2023/01/23 00:33:44;;;;;;;;;41.75;37.75;;;;;;;;4918894;28;45332;-73
2023/01/23 00:36:11;;;;;;;;;48.25;40.25;;;;;;;;4917519;28;45477;-73
2023/01/23 00:38:36;;;;;;;;;28.00;25.75;;;;;;;;4918225;28;46901;-73
2023/01/23 00:41:02;;;;;;;;;47.00;39.00;;;;;;;;4918534;28;45403;-76
2023/01/23 00:43:28;;;;;;;;;41.00;34.75;;;;;;;;4918852;28;45396;-76
2023/01/23 00:45:53;;;;;;;;;36.50;29.75;;;;;;;;4918576;28;45277;-76
2023/01/23 00:48:18;;;;;;;;;40.25;35.00;;;;;;;;4918561;28;45371;-76
2023/01/23 00:50:43;;;;;;;;;39.25;29.00;;;;;;;;4916947;28;45355;-75
2023/01/23 00:53:09;;;;;;;;;38.50;35.00;;;;;;;;4918132;28;45386;-76
2023/01/23 00:55:34;;;;;;;;;40.00;36.00;;;;;;;;4917398;28;45274;-76
2023/01/23 00:58:00;;;;;;;;;30.50;30.25;;;;;;;;4918904;28;46151;-76
2023/01/23 01:00:25;;;;;;;;;40.75;36.50;;;;;;;;4904220;28;45297;-74
2023/01/23 01:02:50;;;;;;;;;35.25;28.25;;;;;;;;4899373;28;45382;-74
2023/01/23 01:05:17;;;;;;;;;32.00;29.50;;;;;;;;4898089;29;45525;-74
2023/01/23 01:07:42;;;;;;;;;49.25;40.25;;;;;;;;4899846;28;45665;-76
2023/01/23 01:10:08;;;;;;;;;35.50;33.75;;;;;;;;4900130;28;45568;-76
2023/01/23 01:12:33;;;;;;;;;44.75;33.50;;;;;;;;4900275;28;45335;-76
2023/01/23 01:14:58;;;;;;;;;40.50;36.50;;;;;;;;4903817;28;45357;-76
2023/01/23 01:17:24;;;;;;;;;50.25;40.50;;;;;;;;4918141;28;46344;-76
2023/01/23 01:19:49;;;;;;;;;41.75;35.75;;;;;;;;4918377;28;45387;-76
2023/01/23 01:22:14;;;;;;;;;52.25;42.25;;;;;;;;4918587;28;45311;-76
2023/01/23 01:24:40;;;;;;;;;44.50;37.00;;;;;;;;4918529;28;45371;-76
2023/01/23 01:27:05;;;;;;;;;39.25;33.50;;;;;;;;4918165;28;46051;-76
2023/01/23 01:29:32;;;;;;;;;42.50;38.25;;;;;;;;4918151;28;45483;-76
2023/01/23 01:31:57;;;;;;;;;43.75;38.75;;;;;;;;4918508;28;45379;-76
2023/01/23 01:34:22;;;;;;;;;50.50;38.75;;;;;;;;4918237;28;45415;-76
2023/01/23 01:36:47;;;;;;;;;42.00;30.75;;;;;;;;4918252;28;46059;-76
2023/01/23 01:39:13;;;;;;;;;38.75;31.00;;;;;;;;4918103;28;45293;-76
2023/01/23 01:41:38;;;;;;;;;47.50;39.50;;;;;;;;4918269;28;45292;-76
2023/01/23 01:44:03;;;;;;;;;44.25;37.25;;;;;;;;4918213;28;45623;-76
2023/01/23 01:46:31;;;;;;;;;43.75;39.00;;;;;;;;4901822;28;46074;-76
2023/01/23 01:49:05;;;;;;;;;39.75;32.00;;;;;;;;4899030;28;45493;-76
2023/01/23 01:51:33;;;;;;;;;36.25;35.75;;;;;;;;4902144;28;45382;-76
2023/01/23 01:53:58;;;;;;;;;51.00;39.00;;;;;;;;4918096;28;45533;-76
2023/01/23 01:56:24;;;;;;;;;38.25;36.50;;;;;;;;4917812;28;46284;-76
2023/01/23 01:58:51;;;;;;;;;50.00;42.75;;;;;;;;4917782;28;45437;-75
2023/01/23 02:01:16;;;;;;;;;52.00;44.25;;;;;;;;4917923;28;45537;-76
2023/01/23 02:03:43;;;;;;;;;47.00;39.75;;;;;;;;4917699;28;45302;-76
2023/01/23 02:06:08;;;;;;;;;43.25;37.75;;;;;;;;4917512;28;46200;-76
2023/01/23 02:08:52;;;;;;;;;46.75;38.75;;;;;;;;4917954;28;45462;-76
2023/01/23 02:11:17;;;;;;;;;47.75;38.25;;;;;;;;4917917;28;45313;-76
2023/01/23 02:13:44;;;;;;;;;46.50;36.75;;;;;;;;4917708;28;45590;-76
2023/01/23 02:16:30;;;;;;;;;41.75;37.00;;;;;;;;4917612;28;46127;-76
2023/01/23 02:19:03;;;;;;;;;42.25;36.25;;;;;;;;4917929;28;45422;-76
2023/01/23 02:21:28;;;;;;;;;46.00;40.75;;;;;;;;4917757;28;45334;-76
2023/01/23 02:23:59;;;;;;;;;42.00;34.75;;;;;;;;4917880;28;45517;-76
2023/01/23 02:26:29;;;;;;;;;38.50;35.50;;;;;;;;4917316;28;46750;-76
2023/01/23 02:28:54;;;;;;;;;39.25;32.75;;;;;;;;4917265;28;45445;-76
2023/01/23 02:31:21;;;;;;;;;42.25;38.75;;;;;;;;4917633;28;45801;-76
2023/01/23 02:33:53;;;;;;;;;43.00;36.75;;;;;;;;4917363;28;45626;-76
2023/01/23 02:36:20;;;;;;;;;40.50;37.00;;;;;;;;4917309;28;45287;-76
2023/01/23 02:38:58;;;;;;;;;49.25;40.50;;;;;;;;4917473;28;45348;-76
2023/01/23 02:41:27;;;;;;;;;48.25;39.75;;;;;;;;4917562;28;45441;-76
2023/01/23 02:43:53;;;;;;;;;42.25;38.00;;;;;;;;4917459;28;45513;-73
2023/01/23 02:46:19;;;;;;;;;53.25;42.50;;;;;;;;4917121;28;45315;-76
2023/01/23 02:48:46;;;;;;;;;45.75;39.25;;;;;;;;4917465;28;45362;-76
2023/01/23 02:51:12;;;;;;;;;54.25;43.00;;;;;;;;4916128;28;45351;-75
2023/01/23 02:53:38;;;;;;;;;44.50;35.75;;;;;;;;4917098;28;45361;-76
2023/01/23 02:56:03;;;;;;;;;40.00;36.75;;;;;;;;4917128;28;45347;-76
2023/01/23 03:01:12;;;;;;;;;52.00;43.25;;;;;;;;4917540;28;45310;-76
2023/01/23 03:03:41;;;;;;;;;37.75;36.00;;;;;;;;4917006;28;45338;-76
2023/01/23 03:06:06;;;;;;;;;58.25;46.25;;;;;;;;4917054;28;45413;-76
2023/01/23 03:08:35;;;;;;;;;45.00;38.50;;;;;;;;4917113;28;45505;-75
2023/01/23 03:11:01;;;;;;;;;36.75;30.75;;;;;;;;4916996;28;45450;-76
2023/01/23 03:13:27;;;;;;;;;46.25;41.50;;;;;;;;4916981;28;45343;-76
2023/01/23 03:15:52;;;;;;;;;44.25;39.75;;;;;;;;4915496;28;47002;-76
2023/01/23 03:18:18;;;;;;;;;52.75;44.25;;;;;;;;4919846;28;45418;-76
2023/01/23 03:20:43;;;;;;;;;48.00;41.25;;;;;;;;4919074;28;45418;-75
2023/01/23 03:23:08;;;;;;;;;33.00;29.50;;;;;;;;4920306;28;45553;-76
2023/01/23 03:25:33;;;;;;;;;48.25;40.25;;;;;;;;4919742;28;45310;-75
2023/01/23 03:27:59;;;;;;;;;59.75;46.25;;;;;;;;4920062;28;45412;-76
2023/01/23 03:30:24;;;;;;;;;53.75;41.50;;;;;;;;4920131;28;45509;-76
2023/01/23 03:32:50;;;;;;;;;48.75;41.50;;;;;;;;4920013;28;45324;-76
2023/01/23 03:35:15;;;;;;;;;56.75;43.00;;;;;;;;4919759;28;47275;-76
2023/01/23 03:37:41;;;;;;;;;52.25;40.50;;;;;;;;4920046;28;45389;-76
2023/01/23 03:42:52;;;;;;;;;55.75;44.50;;;;;;;;4919865;28;45236;-76
2023/01/23 03:45:18;;;;;;;;;58.25;45.00;;;;;;;;4919746;28;45377;-76
2023/01/23 03:47:43;;;;;;;;;49.75;41.50;;;;;;;;4919844;28;45429;-76
2023/01/23 03:50:08;;;;;;;;;50.50;39.75;;;;;;;;4920036;28;45355;-76
2023/01/23 03:52:34;;;;;;;;;46.50;37.00;;;;;;;;4919934;28;45353;-76
2023/01/23 03:54:59;;;;;;;;;52.75;42.25;;;;;;;;4919608;28;45622;-75
2023/01/23 03:57:24;;;;;;;;;35.25;31.25;;;;;;;;4919852;28;45404;-76
2023/01/23 03:59:49;;;;;;;;;51.00;40.50;;;;;;;;4919720;28;45447;-76
2023/01/23 04:02:15;;;;;;;;;34.25;32.00;;;;;;;;4919706;28;45505;-76
2023/01/23 04:04:40;;;;;;;;;48.75;41.25;;;;;;;;4919139;28;45496;-78
2023/01/23 04:07:06;;;;;;;;;54.25;40.75;;;;;;;;4919224;28;45354;-76
2023/01/23 04:09:31;;;;;;;;;45.50;38.50;;;;;;;;4919195;28;45643;-75
2023/01/23 04:11:57;;;;;;;;;47.50;40.25;;;;;;;;4919778;28;45354;-76
2023/01/23 04:14:23;;;;;;;;;47.50;39.00;;;;;;;;4919113;28;45502;-76
2023/01/23 04:16:49;;;;;;;;;25.00;25.00;;;;;;;;4917873;28;45933;-75
2023/01/23 04:19:14;;;;;;;;;56.25;42.50;;;;;;;;4920495;28;45316;-75
2023/01/23 04:21:39;;;;;;;;;50.75;40.25;;;;;;;;4920390;28;45381;-77
2023/01/23 04:24:05;;;;;;;;;53.00;38.75;;;;;;;;4920553;28;46074;-74
2023/01/23 04:26:30;;;;;;;;;50.25;42.25;;;;;;;;4920610;28;45252;-76
2023/01/23 04:28:55;;;;;;;;;51.75;41.00;;;;;;;;4915581;28;45429;-75
2023/01/23 04:31:20;;;;;;;;;57.75;44.50;;;;;;;;4910347;28;45519;-76
2023/01/23 04:33:46;;;;;;;;;49.50;41.75;;;;;;;;4907419;28;46139;-77
2023/01/23 04:36:11;;;;;;;;;45.25;39.00;;;;;;;;4909220;28;45377;-75
2023/01/23 04:38:36;;;;;;;;;49.25;42.50;;;;;;;;4907916;28;45349;-77
2023/01/23 04:41:02;;;;;;;;;41.25;35.25;;;;;;;;4910087;28;45234;-74
2023/01/23 04:43:27;;;;;;;;;48.75;41.50;;;;;;;;4907098;28;45316;-77
2023/01/23 04:45:53;;;;;;;;;44.00;38.75;;;;;;;;4909447;28;45283;-76
2023/01/23 04:48:19;;;;;;;;;49.00;41.00;;;;;;;;4930554;28;45370;-75
2023/01/23 04:50:44;;;;;;;;;40.25;36.50;;;;;;;;4909588;28;45387;-75
2023/01/23 04:53:10;;;;;;;;;41.50;39.25;;;;;;;;4909425;28;45331;-76
2023/01/23 04:55:35;;;;;;;;;54.75;43.50;;;;;;;;4909468;28;45425;-77
2023/01/23 04:58:01;;;;;;;;;56.25;41.25;;;;;;;;4907768;28;45328;-76
2023/01/23 05:00:27;;;;;;;;;51.00;43.25;;;;;;;;4909054;28;45367;-77
2023/01/23 05:02:53;;;;;;;;;27.25;24.75;;;;;;;;4909056;28;45333;-77
2023/01/23 05:05:20;;;;;;;;;43.75;39.00;;;;;;;;4907604;28;45323;-76
2023/01/23 05:07:45;;;;;;;;;37.75;32.75;;;;;;;;4909145;28;45284;-77
2023/01/23 05:10:10;;;;;;;;;51.50;41.50;;;;;;;;4907022;28;45419;-77
2023/01/23 05:12:35;;;;;;;;;51.00;44.50;;;;;;;;4909292;28;46250;-76
2023/01/23 05:15:01;;;;;;;;;44.25;32.50;;;;;;;;4907275;28;45227;-77
2023/01/23 05:17:26;;;;;;;;;47.25;37.00;;;;;;;;4908858;28;45328;-77
2023/01/23 05:19:51;;;;;;;;;51.25;42.75;;;;;;;;4907708;28;45343;-77
2023/01/23 05:22:17;;;;;;;;;46.50;40.50;;;;;;;;4907103;28;45653;-76
2023/01/23 05:24:42;;;;;;;;;58.75;45.25;;;;;;;;4909265;28;45407;-77
2023/01/23 05:27:07;;;;;;;;;42.00;38.00;;;;;;;;4908123;28;45251;-76
2023/01/23 05:29:32;;;;;;;;;46.00;40.75;;;;;;;;4910111;28;45244;-77
2023/01/23 05:31:58;;;;;;;;;55.50;43.50;;;;;;;;4918467;28;45415;-77
2023/01/23 05:34:23;;;;;;;;;47.00;40.25;;;;;;;;4917966;28;45502;-77
2023/01/23 05:36:48;;;;;;;;;48.75;40.00;;;;;;;;4916767;28;45320;-77
2023/01/23 05:39:13;;;;;;;;;46.25;39.00;;;;;;;;4918385;28;45328;-77
2023/01/23 05:41:38;;;;;;;;;46.50;39.75;;;;;;;;4918344;28;46043;-77
2023/01/23 05:44:04;;;;;;;;;41.25;38.75;;;;;;;;4917706;28;45292;-77
2023/01/23 05:46:29;;;;;;;;;56.50;42.25;;;;;;;;4918075;28;45334;-76
2023/01/23 05:48:54;;;;;;;;;58.00;44.50;;;;;;;;4916698;28;45512;-77
2023/01/23 05:51:20;;;;;;;;;56.25;43.50;;;;;;;;4917932;28;46374;-77
2023/01/23 05:53:45;;;;;;;;;50.50;40.75;;;;;;;;4916697;28;45446;-77
2023/01/23 05:56:10;;;;;;;;;60.00;41.75;;;;;;;;4918228;28;45342;-77
2023/01/23 05:58:35;;;;;;;;;47.25;41.00;;;;;;;;4918138;28;45438;-77
2023/01/23 06:01:02;;;;;;;;;58.50;45.25;;;;;;;;4917671;28;45341;-77
2023/01/23 06:03:27;;;;;;;;;58.75;44.25;;;;;;;;4917646;28;45473;-77
2023/01/23 06:05:52;;;;;;;;;43.25;36.00;;;;;;;;4917065;28;45486;-77
2023/01/23 06:08:18;;;;;;;;;29.50;24.50;;;;;;;;4917811;28;45319;-76
2023/01/23 06:10:43;;;;;;;;;41.25;35.00;;;;;;;;4917799;28;46016;-76
2023/01/23 06:13:08;;;;;;;;;58.50;47.00;;;;;;;;4917568;28;45262;-76
2023/01/23 06:15:34;;;;;;;;;56.50;46.00;;;;;;;;4917228;28;45343;-76
2023/01/23 06:17:59;;;;;;;;;53.75;41.75;;;;;;;;4917884;28;45629;-77
2023/01/23 06:20:24;;;;;;;;;52.75;42.25;;;;;;;;4917251;28;47361;-77
2023/01/23 06:22:49;;;;;;;;;39.50;37.75;;;;;;;;4917785;28;45362;-77
2023/01/23 06:25:15;;;;;;;;;38.00;35.50;;;;;;;;4917586;28;45296;-78
2023/01/23 06:27:40;;;;;;;;;49.75;35.25;;;;;;;;4917604;28;45434;-77
2023/01/23 06:30:05;;;;;;;;;45.00;39.25;;;;;;;;4917459;28;45283;-77
2023/01/23 06:32:30;;;;;;;;;38.50;34.75;;;;;;;;4917277;28;45279;-76
2023/01/23 06:34:56;;;;;;;;;41.50;29.50;;;;;;;;4917601;28;45508;-77
2023/01/23 06:37:21;;;;;;;;;34.50;29.00;;;;;;;;4917763;28;45362;-76
2023/01/23 06:39:46;;;;;;;;;45.75;39.25;;;;;;;;4906627;28;46789;-77
2023/01/23 06:42:11;;;;;;;;;45.50;35.25;;;;;;;;4898586;28;45314;-77
2023/01/23 06:44:37;;;;;;;;;37.00;34.25;;;;;;;;4898754;28;45280;-76
2023/01/23 06:47:02;;;;;;;;;37.00;33.75;;;;;;;;4899305;28;45473;-79
2023/01/23 06:49:28;;;;;;;;;49.75;40.50;;;;;;;;4898229;28;46541;-82
2023/01/23 06:51:53;;;;;;;;;51.00;42.00;;;;;;;;4905720;28;45317;-74
2023/01/23 06:54:18;;;;;;;;;51.00;43.00;;;;;;;;4920684;28;45280;-76
2023/01/23 06:56:43;;;;;;;;;59.50;44.00;;;;;;;;4920920;28;45712;-77
2023/01/23 06:59:09;;;;;;;;;53.25;43.25;;;;;;;;4920614;28;45580;-76
2023/01/23 07:01:34;;;;;;;;;47.50;39.00;;;;;;;;4920272;28;45370;-76
2023/01/23 07:03:59;;;;;;;;;55.25;43.50;;;;;;;;4920521;28;45424;-76
2023/01/23 07:06:24;;;;;;;;;37.50;34.00;;;;;;;;4920487;28;45633;-77
2023/01/23 07:08:50;;;;;;;;;54.25;39.50;;;;;;;;4919719;28;46003;-74
2023/01/23 07:11:15;;;;;;;;;37.50;35.50;;;;;;;;4913296;28;45378;-77
2023/01/23 07:13:40;;;;;;;;;48.75;42.75;;;;;;;;4900957;28;45548;-76
2023/01/23 07:16:06;;;;;;;;;50.00;39.50;;;;;;;;4901256;28;45665;-77
2023/01/23 07:18:32;;;;;;;;;46.75;39.75;;;;;;;;4900361;28;46154;-77
2023/01/23 07:20:57;;;;;;;;;46.75;38.75;;;;;;;;4900600;28;45338;-76
2023/01/23 07:23:22;;;;;;;;;49.00;40.75;;;;;;;;4901614;28;45398;-77
2023/01/23 07:25:48;;;;;;;;;47.25;40.00;;;;;;;;4901144;28;45412;-77
2023/01/23 07:28:13;;;;;;;;;45.25;39.50;;;;;;;;4901678;28;45344;-77
2023/01/23 07:30:38;;;;;;;;;39.25;36.25;;;;;;;;4902181;28;45418;-77
2023/01/23 07:33:04;;;;;;;;;43.50;38.50;;;;;;;;4902391;28;45541;-76
2023/01/23 07:35:29;;;;;;;;;42.50;39.25;;;;;;;;4902484;28;45423;-77
2023/01/23 07:37:55;;;;;;;;;47.00;42.50;;;;;;;;4901278;29;45327;-76
2023/01/23 07:40:20;;;;;;;;;46.25;36.50;;;;;;;;4900984;29;45357;-76
2023/01/23 07:42:45;;;;;;;;;37.00;32.00;;;;;;;;4908113;28;45377;-74
2023/01/23 07:45:11;;;;;;;;;41.75;36.50;;;;;;;;4909849;28;45363;-77
2023/01/23 07:47:38;;;;;;;;;45.50;39.75;;;;;;;;4908868;28;45415;-76
2023/01/23 07:50:04;;;;;;;;;47.50;39.00;;;;;;;;4913422;28;45403;-77
2023/01/23 07:52:29;;;;;;;;;50.25;41.50;;;;;;;;4919509;28;45298;-76
2023/01/23 07:54:54;;;;;;;;;39.00;33.50;;;;;;;;4918991;28;45430;-77
2023/01/23 07:57:20;;;;;;;;;51.00;38.00;;;;;;;;4918285;28;45421;-77
2023/01/23 07:59:46;;;;;;;;;38.00;34.50;;;;;;;;4919442;28;45378;-77
2023/01/23 08:02:11;;;;;;;;;49.50;42.00;;;;;;;;4919231;28;45383;-76
2023/01/23 08:04:36;;;;;;;;;39.00;35.75;;;;;;;;4919968;28;45368;-77
2023/01/23 08:07:02;;;;;;;;;44.75;37.50;;;;;;;;4919237;28;46080;-77
2023/01/23 08:09:27;;;;;;;;;45.75;41.75;;;;;;;;4919386;28;45261;-77
2023/01/23 08:11:52;;;;;;;;;35.50;31.75;;;;;;;;4902416;28;45353;-77
2023/01/23 08:14:18;;;;;;;;;47.00;39.75;;;;;;;;4919295;28;45323;-77
2023/01/23 08:16:43;;;;;;;;;39.25;31.25;;;;;;;;4919313;28;45346;-77
2023/01/23 08:19:08;;;;;;;;;50.50;39.50;;;;;;;;4919224;28;45290;-77
2023/01/23 08:21:34;;;;;;;;;50.25;42.50;;;;;;;;4919572;28;45427;-77
2023/01/23 08:24:01;;;;;;;;;36.25;35.50;;;;;;;;4919393;28;45415;-76
2023/01/23 08:26:26;;;;;;;;;46.50;39.75;;;;;;;;4919125;28;46006;-77
2023/01/23 08:28:51;;;;;;;;;37.75;33.25;;;;;;;;4919189;28;45297;-76
2023/01/23 08:31:17;;;;;;;;;42.50;38.75;;;;;;;;4918934;28;45287;-77
2023/01/23 08:33:42;;;;;;;;;33.50;29.50;;;;;;;;4918190;28;45303;-76
2023/01/23 08:36:08;;;;;;;;;42.75;38.75;;;;;;;;4919059;28;46051;-76
2023/01/23 08:38:33;;;;;;;;;36.50;35.25;;;;;;;;4919553;28;45299;-76
2023/01/23 08:40:59;;;;;;;;;42.50;36.75;;;;;;;;4919345;28;45322;-76
2023/01/23 08:43:25;;;;;;;;;49.25;37.75;;;;;;;;4919089;28;45433;-75
2023/01/23 08:45:53;;;;;;;;;44.00;27.25;;;;;;;;4918644;28;45868;-75
2023/01/23 08:48:19;;;;;;;;;40.75;38.00;;;;;;;;4919228;28;45411;-75
2023/01/23 08:50:45;;;;;;;;;37.00;28.25;;;;;;;;4918977;28;45275;-75
2023/01/23 08:53:10;;;;;;;;;53.00;37.00;;;;;;;;4918878;28;45410;-77
2023/01/23 08:55:37;;;;;;;;;35.75;30.25;;;;;;;;4918739;28;46407;-74
2023/01/23 08:58:03;;;;;;;;;41.50;33.00;;;;;;;;4918890;28;45318;-77
2023/01/23 09:00:28;;;;;;;;;45.50;36.00;;;;;;;;4917142;28;45322;-76
2023/01/23 09:02:53;;;;;;;;;26.75;24.25;;;;;;;;4918745;28;45334;-76
2023/01/23 09:05:19;;;;;;;;;46.75;33.25;;;;;;;;4918562;28;45364;-76
2023/01/23 09:07:44;;;;;;;;;44.75;34.00;;;;;;;;4918758;28;45371;-76
2023/01/23 09:10:10;;;;;;;;;42.75;38.00;;;;;;;;4917304;28;45437;-76
2023/01/23 09:12:35;;;;;;;;;51.50;38.25;;;;;;;;4918897;28;45307;-76
2023/01/23 09:15:00;;;;;;;;;34.25;28.50;;;;;;;;4917494;28;46200;-76
2023/01/23 09:17:25;;;;;;;;;42.50;35.75;;;;;;;;4918396;28;45428;-75
2023/01/23 09:19:51;;;;;;;;;42.50;37.25;;;;;;;;4918541;28;45344;-76
2023/01/23 09:22:16;;;;;;;;;42.75;37.75;;;;;;;;4917160;28;45596;-76
2023/01/23 09:24:42;;;;;;;;;49.75;37.75;;;;;;;;4917144;28;46103;-76
2023/01/23 09:27:08;;;;;;;;;41.75;33.00;;;;;;;;4918593;28;45330;-76
2023/01/23 09:29:33;;;;;;;;;38.25;37.25;;;;;;;;4918335;28;45374;-75
2023/01/23 09:31:59;;;;;;;;;38.00;36.00;;;;;;;;4918521;28;45331;-76
2023/01/23 09:34:24;;;;;;;;;37.25;34.50;;;;;;;;4918063;28;47347;-76
2023/01/23 09:36:49;;;;;;;;;41.25;37.25;;;;;;;;4918234;28;45346;-76
2023/01/23 09:39:14;;;;;;;;;34.75;32.00;;;;;;;;4918420;28;45472;-76
2023/01/23 09:41:42;;;;;;;;;36.75;33.25;;;;;;;;4918275;28;45311;-76
2023/01/23 09:44:17;;;;;;;;;32.25;32.25;;;;;;;;4916307;28;47317;-77
2023/01/23 09:46:42;;;;;;;;;30.75;28.25;;;;;;;;4916934;28;45367;-77
2023/01/23 09:49:07;;;;;;;;;34.25;30.50;;;;;;;;4918094;28;45335;-77
2023/01/23 09:51:36;;;;;;;;;28.00;22.00;;;;;;;;4918220;28;45379;-76
2023/01/23 09:54:06;;;;;;;;;33.00;30.25;;;;;;;;4918239;28;45321;-76
2023/01/23 09:56:36;;;;;;;;;49.50;36.75;;;;;;;;4916438;28;45351;-76
2023/01/23 09:59:13;;;;;;;;;30.50;26.50;;;;;;;;4917946;28;45449;-76
2023/01/23 10:01:38;;;;;;;;;33.50;30.25;;;;;;;;4917822;28;45432;-76
2023/01/23 10:04:04;;;;;;;;;39.25;31.00;;;;;;;;4917873;28;45453;-75
2023/01/23 10:06:30;;;;;;;;;41.25;35.00;;;;;;;;4917680;28;45485;-76
2023/01/23 10:08:56;;;;;;;;;34.50;30.00;;;;;;;;4917625;28;45291;-76
2023/01/23 10:11:36;;;;;;;;;39.00;36.25;;;;;;;;4917771;28;45254;-77
2023/01/23 10:14:19;;;;;;;;;38.00;33.75;;;;;;;;4917973;28;46131;-76
2023/01/23 10:16:59;;;;;;;;;38.50;34.75;;;;;;;;4901794;28;45428;-77
2023/01/23 10:19:44;;;;;;;;;38.25;34.00;;;;;;;;4898912;28;45401;-76
2023/01/23 10:22:22;;;;;;;;;40.00;32.25;;;;;;;;4898494;29;45609;-76
2023/01/23 10:24:49;;;;;;;;;42.50;37.25;;;;;;;;4898930;28;45305;-77
2023/01/23 10:27:17;;;;;;;;;43.25;37.25;;;;;;;;4901722;28;45432;-77
2023/01/23 10:29:46;;;;;;;;;26.25;25.25;;;;;;;;4902948;28;45367;-77
2023/01/23 10:32:30;;;;;;;;;34.75;29.50;;;;;;;;4902980;28;45286;-77
2023/01/23 10:35:04;;;;;;;;;43.50;37.50;;;;;;;;4903576;28;45432;-77
2023/01/23 10:37:39;;;;;;;;;36.50;28.50;;;;;;;;4903721;28;45399;-76
2023/01/23 10:40:12;;;;;;;;;23.25;20.75;;;;;;;;4902617;28;45359;-77
2023/01/23 10:42:38;;;;;;;;;32.25;24.00;;;;;;;;4900887;28;45325;-76
2023/01/23 10:45:04;;;;;;;;;27.75;27.00;;;;;;;;4901748;28;46049;-77
2023/01/23 10:47:29;;;;;;;;;33.75;28.75;;;;;;;;4901777;28;45886;-79
2023/01/23 10:49:54;;;;;;;;;39.00;23.75;;;;;;;;4901981;29;45299;-80
2023/01/23 10:52:28;;;;;;;;;35.00;30.50;;;;;;;;4911089;28;45486;-78
2023/01/23 10:54:54;;;;;;;;;37.00;29.00;;;;;;;;4920399;28;46024;-79
2023/01/23 10:57:24;;;;;;;;;22.00;19.75;;;;;;;;4919479;28;46185;-79
2023/01/23 11:00:07;;;;;;;;;31.00;22.50;;;;;;;;4919694;28;45421;-79
2023/01/23 11:02:33;;;;;;;;;31.75;28.75;;;;;;;;4920524;28;45440;-78
2023/01/23 11:04:59;;;;;;;;;36.50;30.50;;;;;;;;4920467;28;45496;-77
2023/01/23 11:07:24;;;;;;;;;41.00;34.25;;;;;;;;4920454;28;45378;-79
2023/01/23 11:09:53;;;;;;;;;39.25;34.50;;;;;;;;4920770;28;45291;-77
2023/01/23 11:12:22;;;;;;;;;36.75;29.25;;;;;;;;4920453;28;45379;-76
2023/01/23 11:14:48;;;;;;;;;35.00;33.50;;;;;;;;4920385;28;46215;-76
2023/01/23 11:17:16;;;;;;;;;32.00;28.25;;;;;;;;4919065;28;45374;-77
2023/01/23 11:19:42;;;;;;;;;31.25;27.25;;;;;;;;4920458;28;45684;-76
2023/01/23 11:22:23;;;;;;;;;25.25;23.50;;;;;;;;4920281;28;45454;-77
2023/01/23 11:24:48;;;;;;;;;43.75;33.25;;;;;;;;4920126;28;46493;-76
2023/01/23 11:27:13;;;;;;;;;36.50;31.75;;;;;;;;4919938;28;45307;-76
2023/01/23 11:29:59;;;;;;;;;33.25;28.25;;;;;;;;4920628;28;45314;-76
2023/01/23 11:32:24;;;;;;;;;36.00;28.00;;;;;;;;4899189;29;45858;-75
2023/01/23 11:34:52;;;;;;;;;36.00;35.25;;;;;;;;4883186;29;46087;-75
2023/01/23 11:37:24;;;;;;;;;35.75;32.00;;;;;;;;4893071;29;45402;-77
2023/01/23 11:39:52;;;;;;;;;24.50;21.25;;;;;;;;4879682;29;45373;-76
2023/01/23 11:42:18;;;;;;;;;30.00;28.25;;;;;;;;4879988;29;45400;-77
2023/01/23 11:44:45;;;;;;;;;33.00;31.75;;;;;;;;4879759;29;45471;-76
2023/01/23 11:47:19;;;;;;;;;35.00;30.25;;;;;;;;4875751;29;45419;-77
2023/01/23 11:49:44;;;;;;;;;32.00;29.00;;;;;;;;4871188;29;45529;-77
2023/01/23 11:52:12;;;;;;;;;35.50;29.25;;;;;;;;4861598;29;45532;-76
2023/01/23 11:54:40;;;;;;;;;35.00;27.50;;;;;;;;4882649;29;47192;-76
2023/01/23 11:57:20;;;;;;;;;32.25;31.75;;;;;;;;4898267;29;45395;-76
2023/01/23 12:00:00;;;;;;;;;31.00;28.00;;;;;;;;4898826;29;45371;-76
2023/01/23 12:02:35;;;;;;;;;27.75;26.75;;;;;;;;4898423;29;45383;-77
2023/01/23 12:05:14;;;;;;;;;39.00;28.75;;;;;;;;4898000;29;46528;-77
2023/01/23 12:08:12;;;;;;;;;41.50;31.00;;;;;;;;4897938;29;45446;-76
2023/01/23 12:10:48;;;;;;;;;35.75;34.25;;;;;;;;4858692;29;45471;-76
2023/01/23 12:13:28;;;;;;;;;43.00;34.00;;;;;;;;4860491;29;45390;-76
2023/01/23 12:15:53;;;;;;;;;34.00;31.50;;;;;;;;4860322;29;46747;-76
2023/01/23 12:18:37;;;;;;;;;37.00;31.75;;;;;;;;4860410;29;45533;-76
2023/01/23 12:21:10;;;;;;;;;35.00;29.50;;;;;;;;4827492;29;45426;-76
2023/01/23 12:23:35;;;;;;;;;37.75;33.50;;;;;;;;4826182;29;45453;-76
2023/01/23 12:26:12;;;;;;;;;33.75;30.50;;;;;;;;4841305;29;46367;-76
2023/01/23 12:28:50;;;;;;;;;32.00;28.75;;;;;;;;4841806;29;45487;-76
2023/01/23 12:31:41;;;;;;;;;38.50;30.75;;;;;;;;4841813;29;45400;-76
2023/01/23 12:34:32;;;;;;;;;26.25;24.75;;;;;;;;4841691;29;45593;-77
2023/01/23 12:37:05;;;;;;;;;40.75;31.50;;;;;;;;4841375;29;46227;-77
2023/01/23 12:39:31;;;;;;;;;40.00;31.00;;;;;;;;4841509;29;45355;-76
2023/01/23 12:42:02;;;;;;;;;31.75;30.50;;;;;;;;4841711;29;45352;-76
2023/01/23 12:44:33;;;;;;;;;32.50;29.25;;;;;;;;4854397;29;45446;-76
2023/01/23 12:47:03;;;;;;;;;28.50;24.50;;;;;;;;4907499;28;45513;-75
2023/01/23 12:49:31;;;;;;;;;36.75;26.75;;;;;;;;4918045;28;45380;-75
2023/01/23 12:52:02;;;;;;;;;34.25;34.25;;;;;;;;4918894;28;45288;-75
2023/01/23 12:54:32;;;;;;;;;31.75;27.25;;;;;;;;4918832;28;45511;-77
2023/01/23 12:56:58;;;;;;;;;29.00;22.75;;;;;;;;4917516;28;45527;-77
2023/01/23 12:59:34;;;;;;;;;29.25;26.75;;;;;;;;4918876;28;45223;-76
2023/01/23 13:02:02;;;;;;;;;30.00;28.00;;;;;;;;4918923;28;45415;-77
2023/01/23 13:04:39;;;;;;;;;35.50;32.25;;;;;;;;4917665;28;45528;-76
2023/01/23 13:07:08;;;;;;;;;34.00;28.25;;;;;;;;4916708;28;45555;-76
2023/01/23 13:09:33;;;;;;;;;29.75;28.50;;;;;;;;4918280;28;45381;-75
2023/01/23 13:12:01;;;;;;;;;33.75;29.25;;;;;;;;4918977;28;45377;-76
2023/01/23 13:14:29;;;;;;;;;29.25;26.25;;;;;;;;4918963;28;45495;-76
2023/01/23 13:17:02;;;;;;;;;35.50;27.25;;;;;;;;4917193;28;48373;-76
2023/01/23 13:22:21;;;;;;;;;35.50;28.00;;;;;;;;4918719;28;45315;-76
2023/01/23 13:27:34;;;;;;;;;28.00;26.50;;;;;;;;4918645;28;45446;-77
2023/01/23 13:30:01;;;;;;;;;28.75;26.00;;;;;;;;4918737;28;45409;-76
2023/01/23 13:32:27;;;;;;;;;28.50;24.75;;;;;;;;4918581;28;45300;-76
2023/01/23 13:34:53;;;;;;;;;29.50;26.00;;;;;;;;4918890;28;45282;-76
2023/01/23 13:37:27;;;;;;;;;30.25;21.75;;;;;;;;4917798;28;46208;-76
2023/01/23 13:40:13;;;;;;;;;23.00;20.75;;;;;;;;4911861;28;45528;-76
2023/01/23 13:42:38;;;;;;;;;25.00;22.50;;;;;;;;4900595;28;45295;-75
2023/01/23 13:45:15;;;;;;;;;29.25;28.00;;;;;;;;4901242;28;45471;-75
2023/01/23 13:50:39;;;;;;;;;29.00;26.25;;;;;;;;4899220;29;45264;-77
2023/01/23 13:58:47;;;;;;;;;29.75;23.25;;;;;;;;4918133;28;45310;-76
2023/01/23 14:06:48;;;;;;;;;24.25;24.25;;;;;;;;4917861;28;45458;-76
2023/01/23 14:09:21;;;;;;;;;26.00;19.75;;;;;;;;4916392;28;46053;-75
2023/01/23 14:11:48;;;;;;;;;25.00;23.00;;;;;;;;4916632;28;45405;-76
2023/01/23 14:16:57;;;;;;;;;24.25;24.00;;;;;;;;4917364;28;45361;-75
2023/01/23 14:19:27;;;;;;;;;27.75;26.75;;;;;;;;4917461;28;46611;-76
2023/01/23 14:21:59;;;;;;;;;25.50;23.25;;;;;;;;4917850;28;45264;-76
2023/01/23 14:24:28;;;;;;;;;27.50;22.25;;;;;;;;4917585;28;45728;-77
2023/01/23 14:26:59;;;;;;;;;21.25;20.75;;;;;;;;4917506;28;45620;-76
2023/01/23 14:29:25;;;;;;;;;34.75;27.25;;;;;;;;4917619;28;45621;-76
2023/01/23 14:31:50;;;;;;;;;27.25;18.50;;;;;;;;4917043;28;45358;-76
2023/01/23 14:34:17;;;;;;;;;24.75;21.50;;;;;;;;4917159;28;45685;-74
2023/01/23 14:36:47;;;;;;;;;33.50;19.00;;;;;;;;4917761;28;45287;-76
2023/01/23 14:39:17;;;;;;;;;11.25;8.50;;;;;;;;4917572;28;46607;-76
2023/01/23 14:41:43;;;;;;;;;27.50;21.25;;;;;;;;4917543;28;45337;-78
2023/01/23 14:44:29;;;;;;;;;23.75;22.25;;;;;;;;4917527;28;45296;-77
2023/01/23 14:46:56;;;;;;;;;21.50;19.50;;;;;;;;4917336;28;45447;-76